Time;durP1;ratioP1;P1;durP2;ratioP2;P2;SDS_P1;SDS_P2;PMS_P1;PMS_P2;Temp;Humidity;BMP_temperature;BMP_pressure;BME280_temperature;BME280_humidity;BME280_pressure;Samples;Min_cycle;Max_cycle;Signal;HPM_P1;HPM_P2
2022/01/08 00:08:32;;;;;;;2.30;1.10;;;11.40;58.00;;;;;;20569828;28;20042;-77
2022/01/08 00:18:33;;;;;;;1.67;0.77;;;11.40;58.10;;;;;;20568997;28;20374;-77
2022/01/08 00:28:35;;;;;;;1.27;0.75;;;11.30;58.00;;;;;;20553329;28;20034;-77
2022/01/08 00:38:36;;;;;;;0.60;0.50;;;11.30;58.10;;;;;;20568875;28;20586;-76
2022/01/08 00:48:37;;;;;;;1.10;0.68;;;11.30;58.10;;;;;;20600327;28;20034;-76
2022/01/08 00:58:40;;;;;;;2.63;1.10;;;11.30;58.20;;;;;;20583374;28;20058;-78
2022/01/08 01:08:41;;;;;;;2.25;1.25;;;11.30;58.20;;;;;;20566258;28;20125;-75
2022/01/08 01:18:43;;;;;;;1.55;1.02;;;11.30;58.20;;;;;;20596997;28;20038;-77
2022/01/08 01:28:54;;;;;;;1.17;0.70;;;11.20;58.20;;;;;;20565167;28;20046;-77
2022/01/08 01:49:15;;;;;;;1.15;0.73;;;11.20;58.30;;;;;;20580817;28;20141;-76
2022/01/08 01:59:16;;;;;;;1.20;0.85;;;11.20;58.30;;;;;;20594904;28;20138;-76
2022/01/08 02:09:22;;;;;;;0.88;0.70;;;11.20;58.40;;;;;;20577467;28;20055;-76
2022/01/08 02:19:23;;;;;;;1.25;0.93;;;11.20;58.40;;;;;;20593446;28;20391;-78
2022/01/08 02:29:24;;;;;;;1.20;0.70;;;11.10;58.40;;;;;;20592770;28;20046;-77
2022/01/08 02:39:25;;;;;;;0.90;0.70;;;11.10;58.50;;;;;;20560532;28;20050;-76
2022/01/08 02:49:26;;;;;;;1.85;1.15;;;11.10;58.50;;;;;;20559250;28;20043;-76
2022/01/08 02:59:33;;;;;;;0.80;0.50;;;11.10;58.50;;;;;;20575406;28;20034;-77
2022/01/08 03:09:40;;;;;;;1.65;0.73;;;11.10;58.50;;;;;;20573233;28;20514;-76
2022/01/08 03:19:42;;;;;;;2.63;1.05;;;11.10;58.60;;;;;;20572865;28;20495;-76
2022/01/08 03:29:43;;;;;;;2.03;0.95;;;11.00;58.60;;;;;;20539404;28;20054;-76
2022/01/08 03:39:45;;;;;;;0.95;0.60;;;11.00;59.20;;;;;;20587154;28;20453;-77
2022/01/08 03:49:46;;;;;;;0.90;0.75;;;11.00;58.60;;;;;;20569876;28;20043;-77
2022/01/08 03:59:49;;;;;;;0.95;0.80;;;11.00;58.70;;;;;;20554623;28;20387;-76
2022/01/08 04:09:49;;;;;;;0.82;0.57;;;11.10;58.80;;;;;;20585956;28;20046;-77
2022/01/08 04:19:51;;;;;;;1.70;0.88;;;11.00;58.80;;;;;;20568480;28;20089;-76
2022/01/08 04:29:55;;;;;;;1.50;0.88;;;11.00;58.80;;;;;;20569412;28;20039;-76
2022/01/08 04:39:56;;;;;;;1.85;1.00;;;11.00;58.80;;;;;;20569385;28;20358;-77
2022/01/08 04:49:57;;;;;;;1.13;0.73;;;10.90;58.80;;;;;;20568816;28;20043;-76
2022/01/08 04:59:59;;;;;;;1.25;0.85;;;10.90;58.80;;;;;;20582028;28;20034;-77
2022/01/08 05:10:00;;;;;;;1.92;1.08;;;10.90;58.90;;;;;;20581721;28;20170;-77
2022/01/08 05:20:04;;;;;;;1.55;0.98;;;11.40;58.20;;;;;;20575053;28;20023;-76
2022/01/08 05:30:10;;;;;;;3.05;1.17;;;12.60;55.70;;;;;;20581241;28;20066;-77
2022/01/08 05:40:13;;;;;;;2.78;1.50;;;13.80;52.70;;;;;;20596392;28;20134;-77
2022/01/08 05:50:15;;;;;;;1.75;1.20;;;14.90;49.90;;;;;;20595816;28;20038;-76
2022/01/08 06:00:17;;;;;;;1.33;1.15;;;15.70;48.00;;;;;;20579154;28;20386;-77
2022/01/08 06:10:19;;;;;;;1.48;0.98;;;16.00;47.00;;;;;;20577416;28;20096;-77
2022/01/08 06:20:20;;;;;;;0.90;0.70;;;15.90;46.50;;;;;;20577725;28;20031;-78
2022/01/08 06:30:21;;;;;;;1.92;1.13;;;15.80;46.50;;;;;;20574870;28;20628;-76
2022/01/08 06:40:23;;;;;;;2.13;0.98;;;15.20;47.30;;;;;;20574932;28;20133;-76
2022/01/08 06:50:27;;;;;;;2.17;1.15;;;14.30;49.00;;;;;;20558891;28;20074;-76
2022/01/08 07:00:27;;;;;;;1.65;1.08;;;13.50;50.50;;;;;;20590203;28;20031;-77
2022/01/08 07:10:28;;;;;;;2.27;0.90;;;12.90;51.80;;;;;;20557392;28;20440;-77
2022/01/08 07:20:29;;;;;;;3.38;1.70;;;12.40;52.90;;;;;;20555987;28;20313;-76
2022/01/08 07:30:29;;;;;;;3.40;1.63;;;12.10;53.80;;;;;;20555731;28;20057;-80
2022/01/08 07:40:30;;;;;;;1.90;1.53;;;12.00;54.40;;;;;;20555500;28;20398;-77
2022/01/08 07:50:30;;;;;;;1.95;1.27;;;11.80;54.90;;;;;;20553592;28;20349;-82
2022/01/08 08:00:31;;;;;;;4.38;1.48;;;11.80;55.20;;;;;;20554218;28;20051;-78
2022/01/08 08:10:32;;;;;;;3.33;1.67;;;11.80;55.50;;;;;;20586682;28;20042;-76
2022/01/08 08:20:32;;;;;;;2.85;1.30;;;11.80;55.60;;;;;;20533417;28;20473;-74
2022/01/08 08:30:38;;;;;;;2.65;1.35;;;11.80;55.70;;;;;;20567525;28;20043;-76
2022/01/08 08:40:39;;;;;;;3.25;1.45;;;11.70;55.80;;;;;;20576604;28;20334;-75
2022/01/08 08:50:40;;;;;;;3.88;1.38;;;11.70;56.00;;;;;;20550581;28;20097;-75
2022/01/08 09:00:41;;;;;;;2.95;1.63;;;11.70;56.20;;;;;;20564090;28;20473;-80
2022/01/08 09:10:42;;;;;;;2.65;1.25;;;11.60;56.30;;;;;;20548062;28;20046;-81
2022/01/08 09:20:44;;;;;;;6.63;1.90;;;11.60;56.50;;;;;;20580774;28;20110;-78
2022/01/08 09:30:46;;;;;;;3.63;2.05;;;11.60;56.60;;;;;;20577768;28;20297;-77
2022/01/08 09:40:49;;;;;;;4.30;2.28;;;11.50;56.70;;;;;;20625556;28;20409;-78
2022/01/08 09:50:50;;;;;;;3.72;1.88;;;11.50;56.70;;;;;;20638745;28;20042;-75
2022/01/08 10:00:52;;;;;;;3.20;1.88;;;11.50;56.80;;;;;;20597747;28;20045;-80
2022/01/08 10:11:02;;;;;;;3.20;1.80;;;11.40;56.90;;;;;;20605175;28;20035;-76
2022/01/08 10:21:20;;;;;;;4.00;2.20;;;11.40;57.00;;;;;;20569684;28;20046;-74
2022/01/08 10:31:25;;;;;;;2.67;1.85;;;11.40;57.00;;;;;;20577313;28;20046;-78
2022/01/08 10:41:27;;;;;;;8.77;3.20;;;11.40;57.20;;;;;;20652150;28;20039;-74
2022/01/08 10:51:31;;;;;;;3.95;2.45;;;11.40;57.20;;;;;;20618928;28;20043;-73
2022/01/08 11:01:36;;;;;;;3.97;1.60;;;11.30;57.20;;;;;;20619176;28;20100;-78
2022/01/08 11:11:37;;;;;;;2.70;1.80;;;11.30;57.30;;;;;;20581916;28;20047;-78
2022/01/08 11:21:38;;;;;;;3.90;2.38;;;11.90;56.40;;;;;;20512192;28;20039;-76
2022/01/08 11:31:39;;;;;;;3.20;1.95;;;13.00;54.10;;;;;;20532904;28;20047;-77
2022/01/08 11:41:41;;;;;;;4.65;2.20;;;13.90;51.90;;;;;;21008225;23;20038;-77
2022/01/08 11:51:43;;;;;;;5.78;2.28;;;14.70;49.90;;;;;;20571196;28;20061;-76
2022/01/08 12:02:04;;;;;;;5.00;2.30;;;15.40;48.20;;;;;;20586800;28;20033;-77
2022/01/08 12:12:04;;;;;;;11.00;2.58;;;15.70;47.30;;;;;;20604680;28;20491;-77
2022/01/08 12:22:21;;;;;;;5.28;2.35;;;15.70;47.00;;;;;;20585035;28;20532;-75
2022/01/08 12:32:27;;;;;;;4.00;2.08;;;15.60;47.00;;;;;;20631231;28;20035;-76
2022/01/08 12:42:29;;;;;;;2.97;1.80;;;14.90;48.00;;;;;;20657207;28;20073;-77
2022/01/08 12:52:29;;;;;;;6.63;1.95;;;14.10;49.40;;;;;;20683805;28;20142;-77
2022/01/08 13:02:30;;;;;;;3.55;1.20;;;13.40;50.80;;;;;;20685511;28;20035;-78
2022/01/08 13:12:31;;;;;;;3.20;1.60;;;12.90;51.90;;;;;;20620613;28;20037;-77
2022/01/08 13:22:32;;;;;;;7.50;2.20;;;12.60;52.90;;;;;;20642015;28;20042;-80
2022/01/08 13:32:35;;;;;;;5.13;2.10;;;12.30;54.30;;;;;;20641994;28;20045;-76
2022/01/08 13:42:39;;;;;;;4.93;2.22;;;12.20;54.10;;;;;;20621221;28;20037;-74
2022/01/08 13:52:42;;;;;;;4.70;1.85;;;12.20;54.50;;;;;;20651208;28;20518;-73
2022/01/08 14:02:42;;;;;;;4.85;2.50;;;12.20;54.60;;;;;;20654135;28;20050;-74
2022/01/08 14:13:02;;;;;;;3.08;1.70;;;12.20;54.60;;;;;;20654401;28;20050;-75
2022/01/08 14:23:17;;;;;;;3.63;2.05;;;12.30;54.50;;;;;;20637819;28;20049;-77
2022/01/08 14:33:18;;;;;;;4.75;1.70;;;12.30;54.40;;;;;;20653346;28;20046;-76
2022/01/08 14:43:23;;;;;;;3.53;1.50;;;12.20;54.50;;;;;;20652316;28;20045;-74
2022/01/08 14:53:23;;;;;;;3.83;1.85;;;12.20;54.60;;;;;;20647468;28;20301;-72
2022/01/08 15:03:24;;;;;;;3.10;1.75;;;12.10;54.80;;;;;;20665696;28;20060;-73
2022/01/08 15:13:25;;;;;;;2.87;1.50;;;12.00;55.00;;;;;;20648522;28;20039;-74
2022/01/08 15:23:25;;;;;;;3.90;1.67;;;12.00;55.30;;;;;;20647936;28;20316;-73
2022/01/08 15:33:26;;;;;;;3.80;1.63;;;11.90;55.60;;;;;;20647233;28;20539;-72
2022/01/08 15:43:26;;;;;;;2.43;1.33;;;11.90;55.80;;;;;;20646211;28;20046;-72
2022/01/08 15:53:27;;;;;;;2.67;1.15;;;12.50;54.70;;;;;;20645534;28;20377;-71
2022/01/08 16:03:28;;;;;;;3.20;1.42;;;13.50;52.70;;;;;;20612956;28;20366;-76
2022/01/08 16:13:28;;;;;;;2.13;1.10;;;14.30;50.70;;;;;;20609134;28;20481;-77
2022/01/08 16:23:34;;;;;;;3.13;0.90;;;15.00;49.00;;;;;;20620809;28;20037;-82
2022/01/08 16:33:36;;;;;;;2.15;0.85;;;15.40;48.00;;;;;;20621158;28;20054;-80
2022/01/08 16:43:39;;;;;;;3.83;1.00;;;15.50;47.40;;;;;;20614070;28;20556;-81
2022/01/08 16:53:43;;;;;;;3.28;1.00;;;15.50;47.20;;;;;;20634389;28;20047;-79
2022/01/08 17:03:50;;;;;;;1.45;1.00;;;15.40;47.30;;;;;;20630125;28;20174;-81
2022/01/08 17:13:53;;;;;;;2.20;1.17;;;14.80;48.30;;;;;;20723213;28;20072;-79
2022/01/08 17:23:53;;;;;;;1.75;1.05;;;14.00;49.50;;;;;;20682040;28;20062;-77
2022/01/08 17:33:54;;;;;;;1.70;1.38;;;13.30;50.90;;;;;;20660081;28;20050;-76
2022/01/08 17:43:55;;;;;;;2.15;1.45;;;12.90;52.10;;;;;;20683651;28;20539;-80
2022/01/08 17:53:57;;;;;;;2.00;1.20;;;12.50;53.00;;;;;;20654050;28;20050;-79
2022/01/08 18:03:58;;;;;;;1.30;1.00;;;12.30;53.70;;;;;;20713071;28;20399;-76
2022/01/08 18:13:58;;;;;;;2.13;1.20;;;12.10;54.20;;;;;;20720464;28;20042;-77
2022/01/08 18:24:02;;;;;;;1.67;1.20;;;12.00;54.50;;;;;;20735543;28;20029;-75
2022/01/08 18:34:04;;;;;;;3.28;1.45;;;12.10;54.70;;;;;;20693187;28;20046;-76
2022/01/08 18:44:05;;;;;;;1.85;1.02;;;12.10;54.70;;;;;;20654407;28;20031;-76
2022/01/08 18:54:07;;;;;;;2.47;1.77;;;12.10;54.70;;;;;;20652090;28;20432;-76
2022/01/08 19:04:08;;;;;;;1.63;1.00;;;12.20;54.70;;;;;;20692771;28;20113;-75
2022/01/08 19:14:09;;;;;;;1.92;1.10;;;12.20;54.60;;;;;;20747368;28;20070;-75
2022/01/08 19:24:10;;;;;;;2.50;1.02;;;12.10;54.40;;;;;;20748507;28;20109;-74
2022/01/08 19:34:11;;;;;;;1.27;0.95;;;12.30;54.60;;;;;;20717572;28;20045;-75
2022/01/08 19:44:13;;;;;;;3.08;1.20;;;12.30;54.60;;;;;;20711036;28;20037;-81
2022/01/08 19:54:14;;;;;;;2.95;1.08;;;12.30;54.60;;;;;;20745315;28;20061;-79
2022/01/08 20:04:15;;;;;;;1.35;0.95;;;12.20;54.50;;;;;;20746007;28;20117;-78
2022/01/08 20:14:15;;;;;;;2.25;0.98;;;12.20;54.60;;;;;;20713100;28;20447;-80
2022/01/08 20:24:16;;;;;;;2.55;1.05;;;12.20;54.60;;;;;;20741845;28;20385;-76
2022/01/08 20:34:17;;;;;;;2.75;0.93;;;12.20;54.60;;;;;;20709620;28;20070;-74
2022/01/08 20:44:17;;;;;;;1.27;1.05;;;12.20;54.70;;;;;;20711076;28;20049;-74
2022/01/08 20:54:18;;;;;;;1.38;0.80;;;12.20;54.70;;;;;;20723829;28;20038;-74
2022/01/08 21:04:19;;;;;;;1.63;1.03;;;12.30;54.80;;;;;;20742588;28;20431;-74
2022/01/08 21:14:19;;;;;;;1.55;0.77;;;12.20;54.80;;;;;;20600590;28;20322;-75
2022/01/08 21:24:21;;;;;;;1.60;0.88;;;12.20;54.90;;;;;;20547557;28;20037;-75
2022/01/08 21:34:22;;;;;;;1.40;0.95;;;12.10;54.90;;;;;;20562998;28;20133;-77
2022/01/08 21:44:28;;;;;;;2.20;0.82;;;12.20;55.00;;;;;;20562612;28;20034;-74
2022/01/08 21:54:29;;;;;;;1.43;0.83;;;12.10;55.00;;;;;;20562739;28;20043;-74
2022/01/08 22:04:30;;;;;;;1.52;0.90;;;12.10;55.00;;;;;;20544844;28;20042;-75
2022/01/08 22:14:30;;;;;;;0.90;0.50;;;12.10;55.10;;;;;;20591447;28;20031;-77
2022/01/08 22:24:31;;;;;;;2.60;0.60;;;12.10;55.10;;;;;;20576695;28;20125;-75
2022/01/08 22:34:32;;;;;;;2.28;0.88;;;12.10;55.10;;;;;;20573750;28;20041;-74
2022/01/08 22:44:32;;;;;;;1.00;0.80;;;12.10;55.20;;;;;;20557373;28;20493;-75
2022/01/08 22:54:33;;;;;;;1.05;0.60;;;12.10;55.20;;;;;;20557288;28;20047;-75
2022/01/08 23:04:35;;;;;;;1.35;0.68;;;12.10;55.30;;;;;;20571801;28;20037;-76
2022/01/08 23:14:36;;;;;;;0.85;0.57;;;12.00;55.20;;;;;;20570643;28;20401;-74
2022/01/08 23:24:36;;;;;;;0.88;0.65;;;12.00;55.30;;;;;;20570209;28;20027;-74
2022/01/08 23:34:37;;;;;;;4.15;0.60;;;12.00;55.30;;;;;;20553752;28;20089;-75
2022/01/08 23:44:38;;;;;;;1.02;0.70;;;12.00;55.40;;;;;;20552996;28;20039;-74
2022/01/08 23:54:38;;;;;;;0.40;0.40;;;12.00;55.40;;;;;;20551882;28;20046;-74
